Historyczne dane pomiarowe

Dodano dane terminowe – wersja testowa.

Dane z okresu 1951-2019

Wersja bazy: 1.34 [2019-03-16, lista zmian], aktualizacja planowana na 2019-04-15

Dane meteo z obszaru Polski uzyskane na podstawie danych udostępnionych przez Instytut Meteorologii i Gospodarki Wodnej – Państwowy Instytut Badawczy.

 

Wybierz Datę:    

       

TemperaturaWilgotnośćWiatrCiśnienieOpadyŚniegCzas trwania zjawisk
 Stacja t tx tn tng RH VA  wxwx mslp ppp RRR   cm mm wxwxwxwxwxwxwx
1961-08-14 14.4 18.2 10.3 9.3 82.3- 7.3 4.3---- 0.2------------
1961-08-13 15.5 16.2 14.6 12.9 74.0- 5.0 8.0---- 0.0------------
1961-08-12 16.4 18.8 14.5 12.6 79.3- 3.3 3.0---- 0.0------------
1961-08-11 17.3 20.1 14.9 10.6 91.3- 7.3 1.3---- 0.0------------
1961-08-10 18.5 24.2 13.6 13.0 84.3- 7.0 2.3---- 3.5------------
1961-08-09 16.5 20.8 14.7 11.6 77.3- 3.3 4.3---- 1.7------------
1961-08-08 15.7 18.2 12.6 9.7 89.0- 5.7 2.0---- 2.0------------
1961-08-07 15.1 17.6 14.3 13.6 88.8- 6.7 2.0---- 1.8------------
1961-08-06 17.4 22.7 14.7 13.0 85.3- 5.3 4.3---- 0.3------------
1961-08-05 15.4 17.9 13.0 14.5 84.3- 3.7 5.7---- 3.8------------
1961-08-04 13.9 16.0 10.3 8.0 93.0- 8.0 5.3---- 6.6------------
1961-08-03 13.7 16.6 12.5 12.7 92.5- 4.7 3.0---- 2.4------------
1961-08-02 16.3 19.2 12.8 10.6 85.5- 7.7 3.3---- 0.2------------
1961-08-01 15.2 16.4 14.5 13.2 91.5- 7.7 6.3---- 3.8------------
1961-07-31 15.4 15.7 14.9 13.3 95.0- 6.0 5.7---- 29.1------------
1961-07-30 15.4 16.7 13.0 12.7 88.8- 7.3 2.3---- 0.0------------
1961-07-29 14.8 16.2 11.8 9.6 77.3- 6.7 7.3---- 4.0------------
1961-07-28 13.0 15.0 12.2 10.9 90.0- 6.3 4.0---- 2.7------------
1961-07-27 15.4 19.5 14.9 13.5 82.0- 7.0 6.0---- 8.4------------
1961-07-26 16.2 21.0 13.8 12.2 90.0- 8.0 4.7---- 7.2------------
1961-07-25 15.2 17.2 14.6 13.7 79.0- 5.3 6.3---- 0.4------------
1961-07-24 15.6 16.6 14.9 13.7 78.5- 4.0 8.0---- 0.0------------
1961-07-23 15.2 16.7 14.1 13.4 80.0- 7.0 4.3---- 5.2------------
1961-07-22 15.8 17.0 14.9 14.0 84.8- 7.0 6.3---- 0.0------------
1961-07-21 16.0 18.3 14.0 13.0 85.0- 5.7 5.0---- 0.5------------
1961-07-20 14.8 18.9 12.5 10.9 90.5- 6.3 3.3---- 9.0------------
1961-07-19 15.4 18.3 12.6 10.1 86.3- 5.3 4.0---- 6.2------------
1961-07-18 15.1 18.0 11.3 11.0 86.3- 6.3 2.3---- 9.1------------
1961-07-17 15.3 17.6 11.7 10.9 83.0- 4.7 2.0---- 0.0------------
1961-07-16 14.8 17.3 12.2 10.1 90.3- 6.3 1.7---- 3.1------------
1961-07-15 15.3 18.3 12.1 9.6 82.8- 2.7 3.3---- 0.4------------
1961-07-14 14.4 17.7 13.8 13.4 90.3- 7.7 5.7---- 0.1------------
1961-07-13 20.1 28.3 13.9 13.7 82.0- 6.7 7.3---- 34.6------------
1961-07-12 16.3 18.3 14.2 12.5 87.0- 3.7 5.0---- 0.0------------
1961-07-11 15.1 16.7 10.9 14.8 81.8- 5.7 6.7---- 0.7------------
1961-07-10 14.7 16.5 12.6 11.7 80.8- 7.0 7.7---- 0.2------------
1961-07-09 14.9 15.5 14.1 13.7 85.8- 6.3 7.0---- 8.6------------
1961-07-08 15.3 18.7 10.5 8.5 88.3- 7.7 3.0---- 2.8------------
1961-07-07 13.7 15.1 10.7 14.9 77.0- 4.3 8.0---- 0.0------------
1961-07-06 13.2 16.2 8.2 14.4 80.0- 5.7 8.7---- 1.5------------
1961-07-05 12.6 16.4 10.5 15.1 81.0- 5.3 8.7---- 4.3------------
1961-07-04 16.1 20.5 11.4 14.1 78.5- 7.0 5.0---- 3.0------------
1961-07-03 20.0 31.8 14.2 12.5 73.8- 0.0 4.3---- 0.2------------
1961-07-02 20.9 26.5 9.6 5.9 63.5- 0.0 1.3---- 0.0------------
1961-07-01 16.0 19.9 10.0 7.6 81.8- 0.0 2.0---- 0.0------------
1961-06-30 15.2 17.7 13.9 12.8 79.5- 0.3 4.0---- 0.0------------
1961-06-29 16.1 17.9 14.6 12.9 75.0- 3.7 8.0---- 0.0------------
1961-06-28 14.9 17.7 13.6 12.7 72.0- 2.7 10.3---- 0.0------------
1961-06-27 19.7 28.8 17.1 15.3 84.3- 6.7 4.3---- 3.5------------
1961-06-26 17.9 21.3 15.3 12.9 74.8- 0.0 5.3---- 0.0------------
1961-06-25 20.1 26.1 15.8 13.4 57.5- 2.7 6.3---- 0.0------------
1961-06-24 16.3 20.0 13.9 13.2 67.8- 5.3 7.0---- 0.0------------
1961-06-23 16.1 18.1 10.3 10.6 71.3- 5.0 6.0---- 0.0------------
1961-06-22 15.4 19.6 8.2 5.8 66.5- 3.7 2.3---- 0.0------------
1961-06-21 14.2 16.9 11.7 9.0 71.0- 4.7 5.0---- 0.2------------
1961-06-20 13.6 16.5 13.0 11.7 64.8- 3.0 7.7---- 0.0------------
1961-06-19 14.9 17.1 13.5 12.3 68.0- 2.7 9.3---- 0.0------------
1961-06-18 17.9 24.3 15.5 15.4 78.3- 6.7 7.0---- 1.4------------
1961-06-17 16.5 19.7 13.4 11.6 79.8- 4.7 5.0---- 0.0------------
1961-06-16 14.1 16.3 13.3 12.7 84.0- 6.7 7.7---- 0.0------------
592.5 ms

 

Źródłem pochodzenia danych jest Instytut Meteorologii i Gospodarki Wodnej – Państwowy Instytut Badawczy. Dane Instytutu Meteorologii i Gospodarki Wodnej – Państwowego Instytutu Badawczego zostały przetworzone.

Dane źródłowe można odnaleźć na stronie https://dane.imgw.pl